createdAt,value
2022-08-14T00:01:31.608Z,25.69
2022-08-14T00:03:58.551Z,25.71
2022-08-14T00:06:28.710Z,25.67
2022-08-14T00:08:59.230Z,25.52
2022-08-14T00:11:28.765Z,25.35
2022-08-14T00:14:01.495Z,25.51
2022-08-14T00:16:40.975Z,25.43
2022-08-14T00:19:18.826Z,25.29
2022-08-14T00:21:51.670Z,25.10
2022-08-14T00:24:23.363Z,25.04
2022-08-14T00:27:02.153Z,25.21
2022-08-14T00:29:33.182Z,25.28
2022-08-14T00:32:53.009Z,25.04
2022-08-14T00:34:56.364Z,24.96
2022-08-14T00:37:23.237Z,24.87
2022-08-14T00:39:51.218Z,24.46
2022-08-14T00:42:55.551Z,24.74
2022-08-14T00:45:12.392Z,24.44
2022-08-14T00:47:44.950Z,24.57
2022-08-14T00:50:17.832Z,24.65
2022-08-14T00:52:52.146Z,24.64
2022-08-14T00:55:20.318Z,24.30
2022-08-14T00:58:11.335Z,24.59
2022-08-14T01:00:47.270Z,24.73
2022-08-14T01:03:22.103Z,24.54
2022-08-14T01:05:52.484Z,23.93
2022-08-14T01:08:51.355Z,23.95
2022-08-14T01:11:18.953Z,24.33
2022-08-14T01:13:55.807Z,24.45
2022-08-14T01:16:30.763Z,24.38
2022-08-14T01:19:17.099Z,24.16
2022-08-14T01:21:52.722Z,24.24
2022-08-14T01:24:30.599Z,23.42
2022-08-14T01:27:01.574Z,23.97
2022-08-14T01:29:58.626Z,23.68
2022-08-14T01:32:24.345Z,23.68
2022-08-14T01:35:17.181Z,23.92
2022-08-14T01:37:56.407Z,23.45
2022-08-14T01:40:37.227Z,23.28
2022-08-14T01:43:21.991Z,23.78
2022-08-14T01:45:57.578Z,23.99
2022-08-14T01:48:33.987Z,24.09
2022-08-14T01:51:18.320Z,24.11
2022-08-14T01:53:50.419Z,24.11
2022-08-14T01:56:37.297Z,24.15
2022-08-14T01:59:09.806Z,23.98
2022-08-14T02:01:37.860Z,23.66
2022-08-14T02:04:40.738Z,23.65
2022-08-14T02:06:57.214Z,23.41
2022-08-14T02:09:24.417Z,23.39
2022-08-14T02:11:54.585Z,23.38
2022-08-14T02:14:31.804Z,23.11
2022-08-14T02:17:00.027Z,23.40
2022-08-14T02:19:32.241Z,23.69
2022-08-14T02:22:02.891Z,23.77
2022-08-14T02:24:38.976Z,23.83
2022-08-14T02:28:22.348Z,23.85
2022-08-14T02:30:01.179Z,23.78
2022-08-14T02:32:36.454Z,23.48
2022-08-14T02:35:16.342Z,23.33
2022-08-14T02:37:48.396Z,23.19
2022-08-14T02:40:18.524Z,23.22
2022-08-14T02:42:54.996Z,23.09
2022-08-14T02:45:37.915Z,22.80
2022-08-14T02:48:10.165Z,23.03
2022-08-14T02:50:54.351Z,23.14
2022-08-14T02:53:20.960Z,23.33
2022-08-14T02:55:47.610Z,23.43
2022-08-14T02:58:21.541Z,23.39
2022-08-14T03:00:58.432Z,23.21
2022-08-14T03:03:26.295Z,23.20
2022-08-14T03:05:54.207Z,22.91
2022-08-14T03:08:21.965Z,22.71
2022-08-14T03:10:50.215Z,22.91
2022-08-14T03:13:21.525Z,23.14
2022-08-14T03:15:55.858Z,22.87
2022-08-14T03:18:31.441Z,22.63
2022-08-14T03:21:05.996Z,22.59
2022-08-14T03:23:38.306Z,22.80
2022-08-14T03:26:29.948Z,22.68
2022-08-14T03:29:01.056Z,22.74
2022-08-14T03:31:29.256Z,22.78
2022-08-14T03:33:56.752Z,22.53
2022-08-14T03:37:38.432Z,22.73
2022-08-14T03:39:22.279Z,22.75
2022-08-14T03:41:53.580Z,22.79
2022-08-14T03:45:19.679Z,22.68
2022-08-14T03:47:08.122Z,22.52
2022-08-14T03:49:35.265Z,22.65
2022-08-14T03:52:37.895Z,22.36
2022-08-14T03:54:55.266Z,22.15
2022-08-14T03:57:22.849Z,22.16
2022-08-14T03:59:50.857Z,22.22
2022-08-14T04:02:32.985Z,22.19
2022-08-14T04:05:11.784Z,22.08
2022-08-14T04:07:41.642Z,22.14
2022-08-14T04:10:17.607Z,22.22
2022-08-14T04:13:03.745Z,22.30
2022-08-14T04:15:31.752Z,22.32
2022-08-14T04:18:03.422Z,22.35
2022-08-14T04:20:31.283Z,22.36
2022-08-14T04:22:57.900Z,22.22
2022-08-14T04:25:24.680Z,22.05
2022-08-14T04:28:02.536Z,21.88
2022-08-14T04:30:33.205Z,21.85
2022-08-14T04:33:06.449Z,21.82
2022-08-14T04:35:56.540Z,21.82
2022-08-14T04:38:41.750Z,21.84
2022-08-14T04:41:30.354Z,21.77
2022-08-14T04:43:57.758Z,21.65
2022-08-14T04:46:54.691Z,21.85
2022-08-14T04:49:15.055Z,21.75
2022-08-14T04:51:46.857Z,21.76
2022-08-14T04:54:26.873Z,21.76
2022-08-14T04:56:54.991Z,21.70
2022-08-14T04:59:23.993Z,21.85
2022-08-14T05:01:56.348Z,21.69
2022-08-14T05:04:24.992Z,21.77
2022-08-14T05:06:54.248Z,21.64
2022-08-14T05:09:28.983Z,21.67
2022-08-14T05:11:56.448Z,21.44
2022-08-14T05:14:53.302Z,21.58
2022-08-14T05:17:28.616Z,21.74
2022-08-14T05:21:05.098Z,21.65
2022-08-14T05:22:42.756Z,21.59
2022-08-14T05:25:09.533Z,21.79
2022-08-14T05:27:37.113Z,22.00
2022-08-14T05:30:06.927Z,22.12
2022-08-14T05:32:35.622Z,22.15
2022-08-14T05:35:04.060Z,22.08
2022-08-14T05:37:31.128Z,22.26
2022-08-14T05:39:59.035Z,22.11
2022-08-14T05:42:32.076Z,22.19
2022-08-14T05:45:01.548Z,22.11
2022-08-14T05:47:28.835Z,21.98
2022-08-14T05:50:01.755Z,22.42
2022-08-14T05:52:39.265Z,22.66
2022-08-14T05:55:08.779Z,22.81
2022-08-14T05:57:49.527Z,22.96
2022-08-14T06:00:28.973Z,23.12
2022-08-14T06:03:00.377Z,23.16
2022-08-14T06:05:28.686Z,23.22
2022-08-14T06:08:00.157Z,23.31
2022-08-14T06:10:29.021Z,23.34
2022-08-14T06:12:58.114Z,23.32
2022-08-14T06:15:29.902Z,23.34
2022-08-14T06:17:59.085Z,23.40
2022-08-14T06:20:28.260Z,23.39
2022-08-14T06:22:56.267Z,23.56
2022-08-14T06:25:23.882Z,23.69
2022-08-14T06:27:52.108Z,23.47
2022-08-14T06:30:21.480Z,23.60
2022-08-14T06:32:52.377Z,23.66
2022-08-14T06:35:20.845Z,23.78
2022-08-14T06:37:59.438Z,23.84
2022-08-14T06:40:34.290Z,23.92
2022-08-14T06:43:08.079Z,23.99
2022-08-14T06:45:37.000Z,24.06
2022-08-14T06:48:17.325Z,24.10
2022-08-14T06:50:45.424Z,24.10
2022-08-14T06:53:14.652Z,24.17
2022-08-14T06:55:57.960Z,24.22
2022-08-14T06:58:30.797Z,24.24
2022-08-14T07:01:25.048Z,24.23
2022-08-14T07:04:24.166Z,24.29
2022-08-14T07:06:58.988Z,24.33
2022-08-14T07:09:28.039Z,24.37
2022-08-14T07:11:54.835Z,24.45
2022-08-14T07:14:23.014Z,24.50
2022-08-14T07:16:49.734Z,24.58
2022-08-14T07:19:20.750Z,24.62
2022-08-14T07:21:48.150Z,24.67
2022-08-14T07:24:21.784Z,24.77
2022-08-14T07:26:49.170Z,24.75
2022-08-14T07:29:17.723Z,24.77
2022-08-14T07:31:49.913Z,24.92
2022-08-14T07:34:26.403Z,24.97
2022-08-14T07:37:03.895Z,25.05
2022-08-14T07:39:30.713Z,25.15
2022-08-14T07:42:01.898Z,25.29
2022-08-14T07:44:35.646Z,25.34
2022-08-14T07:47:12.868Z,25.36
2022-08-14T07:49:41.569Z,25.40
2022-08-14T07:52:10.561Z,25.47
2022-08-14T07:54:41.210Z,25.44
2022-08-14T07:57:12.551Z,25.34
2022-08-14T07:59:47.138Z,25.51
2022-08-14T08:02:19.283Z,25.63
2022-08-14T08:04:54.393Z,25.66
2022-08-14T08:07:29.491Z,25.79
2022-08-14T08:09:58.049Z,25.75
2022-08-14T08:12:31.216Z,25.84
2022-08-14T08:15:03.040Z,25.94
2022-08-14T08:17:42.485Z,26.01
2022-08-14T08:20:19.927Z,25.79
2022-08-14T08:22:50.002Z,26.00
2022-08-14T08:25:26.128Z,26.20
2022-08-14T08:28:08.057Z,26.28
2022-08-14T08:30:38.161Z,26.20
2022-08-14T08:33:16.863Z,26.20
2022-08-14T08:35:50.381Z,26.34
2022-08-14T08:40:31.221Z,26.27
2022-08-14T08:42:59.309Z,26.41
2022-08-14T08:45:27.658Z,26.38
2022-08-14T08:47:55.123Z,26.50
2022-08-14T08:53:02.018Z,26.62
2022-08-14T08:55:30.448Z,26.76
2022-08-14T08:58:04.411Z,26.74
2022-08-14T09:00:35.060Z,26.68
2022-08-14T09:03:05.963Z,26.61
2022-08-14T09:05:34.397Z,26.63
2022-08-14T09:08:30.479Z,26.67
2022-08-14T09:11:02.487Z,26.38
2022-08-14T09:13:45.466Z,26.55
2022-08-14T09:16:18.491Z,26.69
2022-08-14T09:18:46.773Z,26.83
2022-08-14T09:21:16.112Z,26.78
2022-08-14T09:24:27.459Z,26.87
2022-08-14T09:26:30.105Z,27.02
2022-08-14T09:28:59.228Z,27.16
2022-08-14T09:31:27.309Z,26.91
2022-08-14T09:34:26.995Z,26.79
2022-08-14T09:37:25.644Z,26.80
2022-08-14T09:40:11.148Z,26.94
2022-08-14T09:43:14.873Z,26.78
2022-08-14T09:45:53.021Z,26.71
2022-08-14T09:48:27.989Z,26.94
2022-08-14T09:54:18.290Z,27.04
2022-08-14T09:56:30.122Z,27.14
2022-08-14T09:59:10.606Z,27.40
2022-08-14T10:01:40.375Z,27.60
2022-08-14T10:04:33.602Z,27.84
2022-08-14T10:07:02.679Z,27.79
2022-08-14T10:09:33.149Z,27.96
2022-08-14T10:12:00.535Z,27.99
2022-08-14T10:14:35.768Z,27.79
2022-08-14T10:17:05.978Z,27.80
2022-08-14T10:19:35.855Z,27.84
2022-08-14T10:23:11.802Z,27.74
2022-08-14T10:24:54.731Z,27.80
2022-08-14T10:27:24.384Z,27.85
2022-08-14T10:29:54.394Z,28.05
2022-08-14T10:32:28.377Z,28.26
2022-08-14T10:35:13.529Z,28.36
2022-08-14T10:37:48.566Z,28.34
2022-08-14T10:40:43.753Z,28.44
2022-08-14T10:43:25.362Z,28.26
2022-08-14T10:45:59.859Z,28.39
2022-08-14T10:49:04.319Z,28.39
2022-08-14T10:51:39.896Z,28.40
2022-08-14T10:54:26.317Z,28.50
2022-08-14T10:57:11.438Z,28.18
2022-08-14T11:00:02.257Z,28.00
2022-08-14T11:02:54.083Z,28.34
2022-08-14T11:05:23.487Z,28.42
2022-08-14T11:07:57.053Z,28.70
2022-08-14T11:10:54.084Z,28.72
2022-08-14T11:13:27.309Z,28.81
2022-08-14T11:16:02.170Z,28.91
2022-08-14T11:18:37.006Z,28.93
2022-08-14T11:21:09.494Z,29.08
2022-08-14T11:23:41.380Z,29.11
2022-08-14T11:26:12.393Z,28.86
2022-08-14T11:28:47.974Z,29.15
2022-08-14T11:31:24.123Z,29.19
2022-08-14T11:33:55.256Z,28.84
2022-08-14T11:36:57.308Z,28.88
2022-08-14T11:39:22.866Z,28.66
2022-08-14T11:42:57.143Z,28.66
2022-08-14T11:44:51.228Z,28.89
2022-08-14T11:47:20.711Z,29.14
2022-08-14T11:49:48.180Z,29.36
2022-08-14T11:52:19.289Z,29.48
2022-08-14T11:54:57.905Z,29.57
2022-08-14T11:57:24.989Z,29.52
2022-08-14T12:00:04.866Z,29.48
2022-08-14T12:03:03.194Z,29.26
2022-08-14T12:05:52.244Z,29.00
2022-08-14T12:08:24.646Z,29.28
2022-08-14T12:10:57.089Z,29.49
2022-08-14T12:13:27.355Z,29.61
2022-08-14T12:16:00.845Z,29.44
2022-08-14T12:18:34.581Z,29.36
2022-08-14T12:21:15.715Z,29.26
2022-08-14T12:23:50.549Z,29.39
2022-08-14T12:26:39.206Z,29.52
2022-08-14T12:29:13.333Z,29.70
2022-08-14T12:31:47.018Z,29.90
2022-08-14T12:34:20.139Z,29.97
2022-08-14T12:36:49.681Z,29.94
2022-08-14T12:39:23.866Z,29.72
2022-08-14T12:41:57.150Z,29.59
2022-08-14T12:44:32.231Z,29.57
2022-08-14T12:47:03.374Z,29.60
2022-08-14T12:49:34.290Z,29.81
2022-08-14T12:52:02.874Z,29.71
2022-08-14T12:54:32.234Z,29.79
2022-08-14T12:57:20.226Z,29.97
2022-08-14T12:59:49.601Z,30.07
2022-08-14T13:02:26.948Z,29.88
2022-08-14T13:04:56.825Z,29.85
2022-08-14T13:07:27.144Z,29.71
2022-08-14T13:10:00.691Z,29.90
2022-08-14T13:13:12.401Z,29.97
2022-08-14T13:15:38.168Z,29.91
2022-08-14T13:18:10.622Z,30.01
2022-08-14T13:20:44.174Z,29.98
2022-08-14T13:23:18.990Z,30.11
2022-08-14T13:25:58.025Z,30.10
2022-08-14T13:28:32.859Z,29.94
2022-08-14T13:31:11.056Z,30.00
2022-08-14T13:33:40.677Z,30.13
2022-08-14T13:36:09.327Z,30.26
2022-08-14T13:38:36.750Z,29.91
2022-08-14T13:41:04.133Z,29.70
2022-08-14T13:43:36.868Z,29.86
2022-08-14T13:46:19.482Z,30.13
2022-08-14T13:48:47.202Z,30.28
2022-08-14T13:51:16.428Z,30.17
2022-08-14T13:54:06.965Z,30.24
2022-08-14T13:56:39.869Z,30.20
2022-08-14T13:59:07.460Z,30.21
2022-08-14T14:01:42.977Z,30.26
2022-08-14T14:04:19.310Z,30.30
2022-08-14T14:06:51.141Z,30.40
2022-08-14T14:09:52.414Z,30.45
2022-08-14T14:12:38.079Z,30.49
2022-08-14T14:15:10.221Z,30.30
2022-08-14T14:17:39.496Z,30.46
2022-08-14T14:20:15.126Z,30.65
2022-08-14T14:23:02.505Z,30.69
2022-08-14T14:25:45.775Z,30.57
2022-08-14T14:28:16.712Z,30.26
2022-08-14T14:30:54.615Z,30.33
2022-08-14T14:33:46.719Z,30.54
2022-08-14T14:36:21.378Z,30.66
2022-08-14T14:38:52.605Z,30.68
2022-08-14T14:41:22.413Z,30.61
2022-08-14T14:43:51.818Z,30.68
2022-08-14T14:46:20.354Z,30.59
2022-08-14T14:48:54.208Z,30.34
2022-08-14T14:51:22.053Z,30.17
2022-08-14T14:53:48.934Z,30.07
2022-08-14T14:56:50.916Z,29.96
2022-08-14T14:59:02.301Z,30.09
2022-08-14T15:01:28.929Z,29.95
2022-08-14T15:03:56.442Z,30.02
2022-08-14T15:06:29.050Z,29.74
2022-08-14T15:08:59.558Z,29.75
2022-08-14T15:11:30.049Z,29.86
2022-08-14T15:13:58.030Z,30.14
2022-08-14T15:16:24.960Z,30.20
2022-08-14T15:18:52.949Z,30.23
2022-08-14T15:21:19.789Z,30.26
2022-08-14T15:23:48.945Z,30.31
2022-08-14T15:26:31.062Z,30.06
2022-08-14T15:29:08.374Z,30.32
2022-08-14T15:31:36.495Z,30.40
2022-08-14T15:34:45.697Z,30.51
2022-08-14T15:36:59.155Z,30.48
2022-08-14T15:39:29.357Z,30.33
2022-08-14T15:42:00.200Z,30.20
2022-08-14T15:44:31.137Z,30.26
2022-08-14T15:47:01.718Z,30.22
2022-08-14T15:49:34.648Z,30.20
2022-08-14T15:52:03.152Z,30.22
2022-08-14T15:54:31.645Z,30.39
2022-08-14T15:57:08.623Z,30.53
2022-08-14T15:59:55.590Z,30.61
2022-08-14T16:02:24.524Z,30.54
2022-08-14T16:04:55.070Z,30.54
2022-08-14T16:07:22.256Z,30.62
2022-08-14T16:10:11.825Z,30.55
2022-08-14T16:12:52.530Z,30.73
2022-08-14T16:15:21.383Z,30.80
2022-08-14T16:17:48.545Z,30.95
2022-08-14T16:20:42.008Z,31.02
2022-08-14T16:23:10.424Z,31.11
2022-08-14T16:25:42.280Z,31.01
2022-08-14T16:28:10.329Z,31.06
2022-08-14T16:30:55.321Z,31.09
2022-08-14T16:33:56.894Z,31.07
2022-08-14T16:36:26.581Z,31.03
2022-08-14T16:39:00.483Z,31.01
2022-08-14T16:41:28.490Z,31.12
2022-08-14T16:44:05.749Z,31.05
2022-08-14T16:46:44.482Z,31.00
2022-08-14T16:49:14.271Z,30.96
2022-08-14T16:51:42.805Z,30.82
2022-08-14T16:54:34.396Z,30.51
2022-08-14T16:57:23.109Z,30.31
2022-08-14T16:59:57.903Z,30.32
2022-08-14T17:02:42.897Z,30.12
2022-08-14T17:05:20.898Z,29.92
2022-08-14T17:08:24.069Z,29.81
2022-08-14T17:11:10.259Z,29.69
2022-08-14T17:13:58.229Z,29.81
2022-08-14T17:16:30.925Z,29.87
2022-08-14T17:19:01.732Z,29.90
2022-08-14T17:21:32.453Z,29.89
2022-08-14T17:24:56.498Z,29.88
2022-08-14T17:26:55.039Z,29.82
2022-08-14T17:29:31.380Z,29.80
2022-08-14T17:32:06.503Z,29.74
2022-08-14T17:34:51.891Z,29.65
2022-08-14T17:37:37.175Z,29.59
2022-08-14T17:40:15.795Z,29.56
2022-08-14T17:42:50.953Z,29.55
2022-08-14T17:45:26.976Z,29.52
2022-08-14T17:47:59.127Z,29.48
2022-08-14T17:50:59.291Z,29.43
2022-08-14T17:53:27.353Z,29.35
2022-08-14T17:56:02.480Z,29.16
2022-08-14T17:58:38.600Z,29.03
2022-08-14T18:01:13.303Z,29.18
2022-08-14T18:03:50.272Z,29.23
2022-08-14T18:06:39.103Z,29.21
2022-08-14T18:09:24.578Z,29.18
2022-08-14T18:11:57.948Z,29.10
2022-08-14T18:14:32.826Z,29.08
2022-08-14T18:17:16.101Z,29.09
2022-08-14T18:19:44.590Z,29.05
2022-08-14T18:22:31.424Z,28.98
2022-08-14T18:25:02.303Z,28.95
2022-08-14T18:27:43.574Z,28.93
2022-08-14T18:30:33.579Z,28.90
2022-08-14T18:33:21.948Z,28.51
2022-08-14T18:35:58.484Z,28.68
2022-08-14T18:38:46.494Z,28.69
2022-08-14T18:41:36.948Z,28.61
2022-08-14T18:44:10.731Z,28.64
2022-08-14T18:47:10.176Z,28.67
2022-08-14T18:49:57.878Z,28.68
2022-08-14T18:52:34.456Z,28.67
2022-08-14T18:55:17.315Z,28.62
2022-08-14T18:57:59.967Z,28.57
2022-08-14T19:00:32.968Z,28.49
2022-08-14T19:03:04.169Z,28.48
2022-08-14T19:05:47.658Z,28.46
2022-08-14T19:08:18.354Z,28.43
2022-08-14T19:10:49.232Z,28.41
2022-08-14T19:13:47.945Z,28.36
2022-08-14T19:16:22.904Z,28.32
2022-08-14T19:19:00.026Z,28.24
2022-08-14T19:21:32.685Z,28.18
2022-08-14T19:24:27.083Z,28.19
2022-08-14T19:27:24.850Z,28.15
2022-08-14T19:30:20.325Z,28.10
2022-08-14T19:32:52.208Z,28.08
2022-08-14T19:35:55.089Z,28.07
2022-08-14T19:38:49.388Z,27.97
2022-08-14T19:41:29.129Z,27.77
2022-08-14T19:44:10.654Z,27.78
2022-08-14T19:47:00.984Z,27.81
2022-08-14T19:50:30.243Z,27.74
2022-08-14T19:52:37.363Z,27.39
2022-08-14T19:55:20.074Z,27.41
2022-08-14T19:57:52.433Z,27.43
2022-08-14T20:00:29.359Z,27.43
2022-08-14T20:03:11.771Z,27.10
2022-08-14T20:05:46.134Z,27.05
2022-08-14T20:09:06.468Z,27.20
2022-08-14T20:11:16.008Z,27.37
2022-08-14T20:14:10.396Z,27.37
2022-08-14T20:16:44.546Z,27.31
2022-08-14T20:19:34.826Z,26.90
2022-08-14T20:22:35.101Z,26.90
2022-08-14T20:24:54.116Z,27.08
2022-08-14T20:27:33.281Z,27.24
2022-08-14T20:30:33.905Z,27.37
2022-08-14T20:33:08.038Z,27.44
2022-08-14T20:35:43.336Z,27.35
2022-08-14T20:38:29.277Z,27.29
2022-08-14T20:41:06.659Z,27.26
2022-08-14T20:43:55.885Z,27.17
2022-08-14T20:46:30.071Z,26.62
2022-08-14T20:49:03.801Z,26.43
2022-08-14T20:51:54.856Z,26.39
2022-08-14T20:54:34.204Z,26.60
2022-08-14T20:57:11.359Z,26.80
2022-08-14T20:59:43.501Z,26.91
2022-08-14T21:02:30.379Z,26.41
2022-08-14T21:05:16.308Z,26.58
2022-08-14T21:07:50.523Z,26.39
2022-08-14T21:10:34.168Z,26.15
2022-08-14T21:13:25.787Z,26.01
2022-08-14T21:15:57.764Z,26.27
2022-08-14T21:18:47.496Z,26.54
2022-08-14T21:21:25.637Z,26.60
2022-08-14T21:24:39.009Z,26.60
2022-08-14T21:27:02.108Z,26.58
2022-08-14T21:29:40.972Z,26.48
2022-08-14T21:32:34.061Z,26.40
2022-08-14T21:35:06.223Z,26.36
2022-08-14T21:37:44.934Z,26.18
2022-08-14T21:40:18.681Z,26.21
2022-08-14T21:43:02.179Z,26.04
2022-08-14T21:45:31.791Z,25.59
2022-08-14T21:48:10.808Z,25.92
2022-08-14T21:50:59.897Z,25.94
2022-08-14T21:53:31.149Z,25.68
2022-08-14T21:55:58.284Z,25.95
2022-08-14T21:58:52.921Z,25.95
2022-08-14T22:01:15.836Z,25.92
2022-08-14T22:03:46.862Z,25.95
2022-08-14T22:06:28.803Z,25.40
2022-08-14T22:08:57.911Z,25.49
2022-08-14T22:11:25.540Z,25.53
2022-08-14T22:13:56.181Z,25.36
2022-08-14T22:17:01.868Z,25.24
2022-08-14T22:19:19.722Z,25.35
2022-08-14T22:21:47.960Z,25.05
2022-08-14T22:24:37.739Z,25.28
2022-08-14T22:27:06.908Z,25.50
2022-08-14T22:29:34.314Z,25.58
2022-08-14T22:32:01.881Z,25.62
2022-08-14T22:34:33.781Z,25.61
2022-08-14T22:37:01.471Z,25.62
2022-08-14T22:40:17.808Z,25.55
2022-08-14T22:42:21.571Z,25.43
2022-08-14T22:44:50.999Z,25.28
2022-08-14T22:47:19.239Z,25.21
2022-08-14T22:50:31.202Z,24.79
2022-08-14T22:52:39.706Z,24.49
2022-08-14T22:55:07.861Z,24.68
2022-08-14T22:57:41.940Z,24.82
2022-08-14T23:00:15.117Z,25.07
2022-08-14T23:02:44.735Z,25.29
2022-08-14T23:05:13.001Z,25.39
2022-08-14T23:08:56.967Z,25.40
2022-08-14T23:10:33.961Z,25.27
2022-08-14T23:13:04.126Z,25.30
2022-08-14T23:15:33.413Z,25.25
2022-08-14T23:18:03.261Z,25.17
2022-08-14T23:20:31.767Z,25.24
2022-08-14T23:22:58.688Z,25.15
2022-08-14T23:25:57.159Z,25.05
2022-08-14T23:28:35.043Z,24.96
2022-08-14T23:31:12.447Z,24.83
2022-08-14T23:33:46.265Z,24.73
2022-08-14T23:36:28.233Z,24.76
2022-08-14T23:39:00.145Z,24.70
2022-08-14T23:41:26.887Z,24.64
2022-08-14T23:44:15.090Z,24.30
2022-08-14T23:46:44.120Z,23.85
2022-08-14T23:49:12.559Z,23.89
2022-08-14T23:51:39.533Z,23.89
2022-08-14T23:54:47.386Z,24.33
2022-08-14T23:57:00.206Z,24.61
2022-08-14T23:59:30.212Z,24.70
